createdAt,value
2022-08-09T00:01:56.049Z,20.30
2022-08-09T00:12:03.629Z,20.40
2022-08-09T00:22:08.175Z,20.20
2022-08-09T00:32:14.005Z,20.00
2022-08-09T00:44:15.219Z,19.90
2022-08-09T00:52:52.399Z,19.70
2022-08-09T01:03:07.936Z,19.70
2022-08-09T01:13:42.007Z,19.50
2022-08-09T01:24:06.135Z,19.40
2022-08-09T01:34:10.598Z,19.40
2022-08-09T01:44:17.316Z,19.20
2022-08-09T01:54:24.077Z,19.10
2022-08-09T02:04:27.036Z,18.80
2022-08-09T02:14:31.315Z,18.90
2022-08-09T02:24:39.513Z,18.80
2022-08-09T02:34:51.740Z,18.70
2022-08-09T02:45:17.581Z,18.40
2022-08-09T02:55:21.490Z,18.20
2022-08-09T03:05:23.957Z,18.30
2022-08-09T03:16:04.457Z,18.10
2022-08-09T03:25:58.582Z,18.10
2022-08-09T03:36:15.678Z,17.90
2022-08-09T03:46:27.283Z,17.90
2022-08-09T03:56:33.236Z,17.80
2022-08-09T04:06:38.698Z,17.60
2022-08-09T04:16:47.058Z,17.50
2022-08-09T04:26:49.839Z,17.50
2022-08-09T04:36:52.138Z,17.40
2022-08-09T04:46:59.421Z,17.40
2022-08-09T04:57:10.176Z,17.40
2022-08-09T05:07:19.362Z,17.50
2022-08-09T05:18:38.008Z,17.60
2022-08-09T05:27:48.049Z,17.70
2022-08-09T05:37:50.923Z,17.90
2022-08-09T05:47:56.819Z,17.90
2022-08-09T05:58:04.237Z,18.10
2022-08-09T06:08:11.056Z,18.10
2022-08-09T06:18:13.276Z,18.40
2022-08-09T06:28:18.358Z,18.50
2022-08-09T06:38:37.208Z,18.90
2022-08-09T06:48:43.382Z,19.30
2022-08-09T07:00:52.914Z,19.60
2022-08-09T07:09:07.136Z,20.10
2022-08-09T07:19:29.480Z,20.70
2022-08-09T07:29:38.130Z,21.80
2022-08-09T07:39:46.441Z,23.10
2022-08-09T07:50:05.283Z,24.30
2022-08-09T08:00:11.883Z,25.00
2022-08-09T08:10:27.266Z,26.00
2022-08-09T08:20:33.373Z,26.60
2022-08-09T08:30:35.521Z,27.20
2022-08-09T08:40:38.419Z,27.50
2022-08-09T08:50:41.779Z,28.00
2022-08-09T09:01:00.085Z,28.70
2022-08-09T09:11:13.660Z,29.10
2022-08-09T09:21:26.307Z,29.50
2022-08-09T09:32:04.421Z,29.90
2022-08-09T09:41:57.315Z,30.20
2022-08-09T09:52:16.677Z,30.70
2022-08-09T10:02:48.578Z,31.10
2022-08-09T10:12:57.551Z,31.40
2022-08-09T10:23:16.938Z,31.90
2022-08-09T10:34:04.267Z,32.20
2022-08-09T10:44:01.265Z,32.50
2022-08-09T10:54:16.077Z,32.60
2022-08-09T11:04:30.540Z,33.00
2022-08-09T11:14:38.081Z,33.00
2022-08-09T11:25:01.260Z,33.60
2022-08-09T11:35:15.097Z,33.40
2022-08-09T11:45:42.465Z,33.90
2022-08-09T11:55:53.967Z,34.10
2022-08-09T12:06:13.038Z,34.30
2022-08-09T12:16:40.156Z,33.80
2022-08-09T12:28:58.182Z,34.60
2022-08-09T12:37:21.595Z,34.50
2022-08-09T12:47:28.855Z,34.50
2022-08-09T12:57:48.998Z,34.80
2022-08-09T13:08:16.859Z,34.40
2022-08-09T13:18:27.307Z,34.80
2022-08-09T13:28:34.718Z,35.00
2022-08-09T13:38:55.886Z,35.20
2022-08-09T13:48:59.960Z,35.20
2022-08-09T13:59:03.025Z,35.50
2022-08-09T14:09:05.245Z,35.00
2022-08-09T14:19:07.558Z,34.80
2022-08-09T14:30:15.227Z,34.60
2022-08-09T14:39:47.372Z,34.90
2022-08-09T14:50:02.181Z,34.80
2022-08-09T15:00:07.639Z,34.60
2022-08-09T15:10:14.116Z,34.50
2022-08-09T15:21:57.686Z,34.50
2022-08-09T15:30:58.707Z,34.50
2022-08-09T15:41:09.645Z,33.90
2022-08-09T15:51:44.226Z,34.10
2022-08-09T16:01:37.006Z,34.20
2022-08-09T16:11:40.727Z,33.60
2022-08-09T16:21:51.916Z,32.40
2022-08-09T16:32:19.899Z,32.30
2022-08-09T16:42:23.718Z,31.80
2022-08-09T16:52:26.559Z,31.60
2022-08-09T17:02:32.142Z,31.40
2022-08-09T17:12:34.577Z,31.10
2022-08-09T17:22:37.755Z,30.60
2022-08-09T17:32:53.139Z,30.10
2022-08-09T17:42:59.437Z,29.70
2022-08-09T17:53:19.501Z,29.20
2022-08-09T18:03:28.641Z,28.60
2022-08-09T18:13:39.445Z,28.10
2022-08-09T18:24:11.587Z,27.80
2022-08-09T18:34:08.498Z,27.50
2022-08-09T18:44:13.519Z,27.30
2022-08-09T18:54:20.126Z,27.00
2022-08-09T19:04:34.863Z,26.70
2022-08-09T19:14:39.417Z,26.10
2022-08-09T19:25:07.208Z,25.70
2022-08-09T19:35:11.402Z,25.40
2022-08-09T19:45:13.520Z,25.10
2022-08-09T19:55:15.881Z,24.60
2022-08-09T20:05:25.017Z,24.40
2022-08-09T20:16:34.930Z,24.10
2022-08-09T20:25:53.330Z,23.80
2022-08-09T20:35:56.717Z,23.60
2022-08-09T20:46:33.990Z,23.40
2022-08-09T20:56:27.802Z,23.40
2022-08-09T21:06:32.976Z,23.40
2022-08-09T21:16:38.064Z,23.30
2022-08-09T21:26:40.335Z,23.20
2022-08-09T21:36:55.207Z,23.20
2022-08-09T21:46:58.821Z,23.10
2022-08-09T21:57:25.518Z,23.20
2022-08-09T22:07:39.854Z,23.10
2022-08-09T22:17:46.118Z,23.10
2022-08-09T22:27:48.681Z,23.00
2022-08-09T22:38:06.754Z,23.00
2022-08-09T22:48:35.256Z,22.90
2022-08-09T22:58:34.418Z,22.80
2022-08-09T23:08:48.813Z,22.80
2022-08-09T23:18:51.078Z,22.70
2022-08-09T23:28:53.137Z,22.70
2022-08-09T23:38:54.943Z,22.60
2022-08-09T23:48:56.857Z,22.60
2022-08-09T23:58:58.657Z,22.60
